Historyczne dane pomiarowe

Dodano dane terminowe – wersja testowa.

Dane z okresu 1951-2019

Wersja bazy: 1.34 [2019-03-16, lista zmian], aktualizacja planowana na 2019-04-15

Dane meteo z obszaru Polski uzyskane na podstawie danych udostępnionych przez Instytut Meteorologii i Gospodarki Wodnej – Państwowy Instytut Badawczy.

 

Wybierz Datę:    

       

TemperaturaWilgotnośćWiatrCiśnienieOpadyŚniegCzas trwania zjawisk
 Stacja t tx tn tng RH VA  wxwx mslp ppp RRR   cm mm wxwxwxwxwxwxwx
1956-11-09 -3.8 -0.8 -5.0 -8.4 75.3- 3.7 3.3---- 0.0------------
1956-11-08 -1.7 1.2 -5.2 -9.0 84.0- 4.3 2.0---- 0.0------------
1956-11-07 0.1 2.4 -0.9 -1.1 78.3- 5.7 6.3---- 0.0------------
1956-11-06 1.3 3.4 -0.2 -1.4 86.0- 7.0 8.0---- 0.0------------
1956-11-05 2.8 5.7 -3.3 -5.1 86.5- 7.3 6.3---- 0.4------------
1956-11-04 -0.5 3.4 -4.2 -7.8 74.8- 2.7 3.3---- 0.0------------
1956-11-03 -1.2 3.5 -6.0-10.4 86.8- 3.0 1.0---- 0.0------------
1956-11-02 -0.7 2.4 -2.5 -5.5 93.5- 5.0 1.3---- 0.0------------
1956-11-01 -1.9 3.3 -8.7-12.7 73.3- 3.0 4.0---- 0.1------------
1956-10-31 -6.1 -1.0 -7.4 -8.4 84.5- 2.3 4.7---- 0.0------------
1956-10-30 0.7 4.2 -1.2 1.1 93.3- 8.0 7.0---- 0.0------------
1956-10-29 4.2 10.7 2.5 0.5 84.0- 5.0 3.0---- 0.0------------
1956-10-28 10.1 10.7 8.6 7.8 97.5- 8.0 6.3---- 13.3------------
1956-10-27 9.1 11.1 6.7 6.3 94.8- 8.0 5.0---- 2.6------------
1956-10-26 7.6 9.3 6.1 1.6 95.8- 8.0 4.0---- 0.6------------
1956-10-25 10.3 16.5 6.2 2.4 82.5- 3.3 3.0---- 0.0------------
1956-10-24 10.9 15.4 1.0 -0.3 84.3- 3.7 4.0---- 0.0------------
1956-10-23 7.6 11.3 4.8 4.4 89.8- 5.3 3.3---- 0.0------------
1956-10-22 10.9 14.3 7.9 3.5 91.5- 4.7 4.7---- 0.0------------
1956-10-21 11.5 16.3 8.2 6.3 91.3- 4.7 2.0---- 0.0------------
1956-10-20 8.8 12.7 3.2 -0.5 88.8- 7.3 1.0---- 0.0------------
1956-10-19 9.9 13.3 7.9 8.5 96.3- 8.0 4.7---- 0.7------------
1956-10-18 10.1 11.9 4.2 0.9 92.0- 8.0 3.0---- 1.1------------
1956-10-17 6.2 12.3 0.5 -2.5 77.3- 0.0 3.0---- 0.0------------
1956-10-16 5.0 11.2 -1.0 -5.8 79.3- 1.7 1.0---- 0.0------------
1956-10-15 4.3 10.7 -0.3 -4.0 86.8- 2.7 2.7---- 0.0------------
1956-10-14 6.7 10.9 2.9 6.5 72.0- 4.0 8.0---- 0.0------------
1956-10-13 10.0 11.5 6.9 4.6 77.3- 7.7 9.3---- 3.1------------
1956-10-12 8.7 11.9 7.1 6.1 84.5- 5.3 6.3---- 0.0------------
1956-10-11 7.7 10.8 1.9 -1.3 77.0- 5.3 4.3---- 0.0------------
1956-10-10 3.2 8.0 0.2 -4.5 84.0- 2.7 2.0---- 0.0------------
1956-10-09 6.4 7.6 1.0 -2.1 90.3- 8.0 3.7---- 1.8------------
1956-10-08 3.9 8.4 0.1 -4.1 86.0- 5.0 3.7---- 0.0------------
1956-10-07 5.9 8.5 3.0 2.7 80.8- 5.7 8.3---- 0.1------------
1956-10-06 5.0 7.7 3.4 3.5 94.5- 8.0 7.0---- 31.9------------
1956-10-05 9.1 14.3 7.1 4.6 82.8- 6.7 3.0---- 0.0------------
1956-10-04 9.5 10.5 5.9 2.1 97.3- 8.0 2.3---- 10.6------------
1956-10-03 13.0 18.2 10.1 8.5 86.3- 4.7 4.3---- 0.0------------
1956-10-02 16.4 25.3 9.1 6.3 76.8- 2.3 3.7---- 0.1------------
1956-10-01 16.3 24.6 6.5 4.3 79.0- 1.7 4.0---- 0.0------------
1956-09-30 11.3 17.9 8.1 3.6 88.8- 3.0 3.3---- 0.0------------
1956-09-29 15.8 19.9 13.1 11.7 81.5- 7.7 6.0---- 0.0------------
1956-09-28 13.7 18.2 11.1 8.4 82.5- 7.7 4.3---- 0.0------------
1956-09-27 15.6 23.1 9.1 6.1 71.3- 1.7 4.7---- 0.0------------
1956-09-26 13.9 23.0 5.6 3.9 67.3- 0.0 4.7---- 0.0------------
1956-09-25 11.8 21.0 2.8 1.1 73.8- 0.7 5.3---- 0.0------------
1956-09-24 9.5 15.2 4.6 2.6 53.8- 0.0 7.7---- 0.0------------
1956-09-23 11.2 16.9 7.6 5.6 75.3- 2.7 5.7---- 0.0------------
1956-09-22 12.4 18.7 5.9 3.4 73.8- 0.0 5.0---- 0.0------------
1956-09-21 10.7 18.3 3.3 -0.2 74.0- 0.0 1.0---- 0.0------------
1956-09-20 9.7 16.9 3.0 0.8 73.8- 4.0 4.0---- 0.0------------
1956-09-19 8.4 17.4 0.9 -1.6 78.0- 2.0 1.0---- 0.0------------
1956-09-18 7.7 13.3 2.8 1.1 84.3- 3.7 2.3---- 0.0------------
1956-09-17 8.6 11.4 6.7 7.1 89.0- 5.3 5.3---- 1.8------------
1956-09-16 10.1 13.1 6.2 2.6 81.8- 6.7 4.7---- 0.0------------
1956-09-15 9.4 14.4 5.0 1.0 90.3- 7.3 2.7---- 0.0------------
1956-09-14 9.1 13.6 5.0 1.6 92.0- 4.0 2.7---- 0.0------------
1956-09-13 8.9 12.7 7.5 5.8 84.0- 6.7 6.3---- 1.1------------
1956-09-12 11.1 14.9 8.5 9.5 86.3- 4.7 6.3---- 10.8------------
1956-09-11 13.2 16.1 12.1 12.4 96.8- 6.7 2.0---- 7.5------------
179.8 ms

 

Źródłem pochodzenia danych jest Instytut Meteorologii i Gospodarki Wodnej – Państwowy Instytut Badawczy. Dane Instytutu Meteorologii i Gospodarki Wodnej – Państwowego Instytutu Badawczego zostały przetworzone.

Dane źródłowe można odnaleźć na stronie https://dane.imgw.pl